createdAt,value
2019-04-03T00:01:48.669Z,27.93
2019-04-03T00:04:19.281Z,25.97
2019-04-03T00:06:50.759Z,27.80
2019-04-03T00:09:20.273Z,30.03
2019-04-03T00:11:52.532Z,28.00
2019-04-03T00:14:22.069Z,25.67
2019-04-03T00:16:51.713Z,27.47
2019-04-03T00:19:23.353Z,25.77
2019-04-03T00:21:53.533Z,31.20
2019-04-03T00:24:25.291Z,42.90
2019-04-03T00:26:54.883Z,35.20
2019-04-03T00:29:24.528Z,28.00
2019-04-03T00:31:54.235Z,26.87
2019-04-03T00:34:23.980Z,25.40
2019-04-03T00:36:54.075Z,28.10
2019-04-03T00:39:24.354Z,28.50
2019-04-03T00:41:55.143Z,28.07
2019-04-03T00:44:25.244Z,32.13
2019-04-03T00:46:56.169Z,26.20
2019-04-03T00:49:26.451Z,25.67
2019-04-03T00:51:57.506Z,29.23
2019-04-03T00:54:27.339Z,27.97
2019-04-03T00:56:57.101Z,28.03
2019-04-03T00:59:26.884Z,26.80
2019-04-03T01:01:57.166Z,28.83
2019-04-03T01:04:28.934Z,27.47
2019-04-03T01:06:59.155Z,29.17
2019-04-03T01:09:29.784Z,27.93
2019-04-03T01:12:01.472Z,27.90
2019-04-03T01:14:32.460Z,30.07
2019-04-03T01:17:04.408Z,29.43
2019-04-03T01:19:36.140Z,32.03
2019-04-03T01:22:05.667Z,30.83
2019-04-03T01:24:36.721Z,28.17
2019-04-03T01:27:07.179Z,29.10
2019-04-03T01:29:38.503Z,33.27
2019-04-03T01:32:08.013Z,31.27
2019-04-03T01:34:37.541Z,31.37
2019-04-03T01:37:06.955Z,30.43
2019-04-03T01:39:36.499Z,28.83
2019-04-03T01:42:09.021Z,28.93
2019-04-03T01:44:38.383Z,32.50
2019-04-03T01:47:08.052Z,28.17
2019-04-03T01:49:39.764Z,28.70
2019-04-03T01:52:10.756Z,29.77
2019-04-03T01:54:42.014Z,31.77
2019-04-03T01:57:11.447Z,29.80
2019-04-03T01:59:41.119Z,30.63
2019-04-03T02:02:14.348Z,31.53
2019-04-03T02:04:44.390Z,29.70
2019-04-03T02:07:14.861Z,29.40
2019-04-03T02:09:47.217Z,34.10
2019-04-03T02:12:17.966Z,33.27
2019-04-03T02:14:51.549Z,31.97
2019-04-03T02:17:19.723Z,33.87
2019-04-03T02:19:49.649Z,30.57
2019-04-03T02:22:20.620Z,35.00
2019-04-03T02:24:50.319Z,35.07
2019-04-03T02:27:20.283Z,33.17
2019-04-03T02:29:52.272Z,31.47
2019-04-03T02:32:24.141Z,34.20
2019-04-03T02:34:54.692Z,37.07
2019-04-03T02:37:24.174Z,41.10
2019-04-03T02:39:53.905Z,31.67
2019-04-03T02:42:30.006Z,40.50
2019-04-03T02:45:02.698Z,35.97
2019-04-03T02:47:35.942Z,39.07
2019-04-03T02:50:05.681Z,33.83
2019-04-03T02:52:35.558Z,32.57
2019-04-03T02:55:08.577Z,33.63
2019-04-03T02:57:38.691Z,36.70
2019-04-03T03:00:08.556Z,32.37
2019-04-03T03:02:38.271Z,36.10
2019-04-03T03:05:08.046Z,35.37
2019-04-03T03:07:37.717Z,33.43
2019-04-03T03:10:07.413Z,32.37
2019-04-03T03:12:37.632Z,35.13
2019-04-03T03:15:10.957Z,34.97
2019-04-03T03:17:41.447Z,36.40
2019-04-03T03:20:11.603Z,35.67
2019-04-03T03:22:45.763Z,34.43
2019-04-03T03:25:17.261Z,39.60
2019-04-03T03:27:47.907Z,34.13
2019-04-03T03:30:35.886Z,32.03
2019-04-03T03:32:51.895Z,35.50
2019-04-03T03:35:30.664Z,35.43
2019-04-03T03:37:56.368Z,35.73
2019-04-03T03:40:26.047Z,35.83
2019-04-03T03:42:56.199Z,35.00
2019-04-03T03:45:27.199Z,37.73
2019-04-03T03:47:58.293Z,41.87
2019-04-03T03:50:27.974Z,42.37
2019-04-03T03:52:58.439Z,37.37
2019-04-03T03:55:29.839Z,37.87
2019-04-03T03:58:00.394Z,39.13
2019-04-03T04:00:36.503Z,36.50
2019-04-03T04:03:09.100Z,36.37
2019-04-03T04:05:36.864Z,36.87
2019-04-03T04:08:10.550Z,38.77
2019-04-03T04:10:38.961Z,35.73
2019-04-03T04:13:13.339Z,36.23
2019-04-03T04:15:40.427Z,36.30
2019-04-03T04:18:13.891Z,33.33
2019-04-03T04:20:42.538Z,41.57
2019-04-03T04:23:12.054Z,36.47
2019-04-03T04:25:43.869Z,38.13
2019-04-03T04:28:13.799Z,35.87
2019-04-03T04:30:44.461Z,40.50
2019-04-03T04:33:17.787Z,36.40
2019-04-03T04:35:51.688Z,38.97
2019-04-03T04:38:21.136Z,37.13
2019-04-03T04:40:50.871Z,37.67
2019-04-03T04:43:20.583Z,35.17
2019-04-03T04:45:51.319Z,38.00
2019-04-03T04:48:21.417Z,37.73
2019-04-03T04:50:51.180Z,42.40
2019-04-03T04:53:20.829Z,34.83
2019-04-03T04:55:50.735Z,43.23
2019-04-03T04:58:22.122Z,80.13
2019-04-03T05:00:57.769Z,45.37
2019-04-03T05:03:30.810Z,62.77
2019-04-03T05:06:00.285Z,38.40
2019-04-03T05:08:32.192Z,41.00
2019-04-03T05:11:02.641Z,40.87
2019-04-03T05:13:32.673Z,46.20
2019-04-03T05:16:02.369Z,39.10
2019-04-03T05:18:32.118Z,37.47
2019-04-03T05:21:01.898Z,41.67
2019-04-03T05:23:34.186Z,44.23
2019-04-03T05:26:05.927Z,43.73
2019-04-03T05:28:35.614Z,43.47
2019-04-03T05:31:08.162Z,48.73
2019-04-03T05:33:37.632Z,47.67
2019-04-03T05:36:12.486Z,39.97
2019-04-03T05:38:41.998Z,41.30
2019-04-03T05:41:11.969Z,45.03
2019-04-03T05:43:41.871Z,45.13
2019-04-03T05:46:11.435Z,39.70
2019-04-03T05:48:41.463Z,45.97
2019-04-03T05:51:14.105Z,45.07
2019-04-03T05:53:43.807Z,40.50
2019-04-03T05:56:18.461Z,50.60
2019-04-03T05:58:56.727Z,38.13
2019-04-03T06:01:22.983Z,35.80
2019-04-03T06:03:52.683Z,37.97
2019-04-03T06:06:22.357Z,39.87
2019-04-03T06:08:52.018Z,44.30
2019-04-03T06:11:21.519Z,39.50
2019-04-03T06:13:50.895Z,36.13
2019-04-03T06:16:24.481Z,35.53
2019-04-03T06:18:53.698Z,39.40
2019-04-03T06:21:24.306Z,43.43
2019-04-03T06:23:55.277Z,44.90
2019-04-03T06:26:27.646Z,43.47
2019-04-03T06:28:57.136Z,35.20
2019-04-03T06:31:27.206Z,39.97
2019-04-03T06:33:57.161Z,40.47
2019-04-03T06:36:28.516Z,37.00
2019-04-03T06:38:58.451Z,41.27
2019-04-03T06:41:28.267Z,39.57
2019-04-03T06:44:00.145Z,39.23
2019-04-03T06:46:29.930Z,40.03
2019-04-03T06:49:00.239Z,37.03
2019-04-03T06:51:30.292Z,46.93
2019-04-03T06:54:00.999Z,33.30
2019-04-03T06:56:30.588Z,35.17
2019-04-03T06:59:00.457Z,29.47
2019-04-03T07:01:29.973Z,33.87
2019-04-03T07:04:01.060Z,30.83
2019-04-03T07:06:30.765Z,32.73
2019-04-03T07:09:00.490Z,34.83
2019-04-03T07:11:30.215Z,37.23
2019-04-03T07:13:59.752Z,34.20
2019-04-03T07:16:29.405Z,40.27
2019-04-03T07:18:59.155Z,40.20
2019-04-03T07:21:28.933Z,39.73
2019-04-03T07:24:00.337Z,39.93
2019-04-03T07:26:29.680Z,33.97
2019-04-03T07:28:59.536Z,38.97
2019-04-03T07:31:29.124Z,41.60
2019-04-03T07:34:01.519Z,45.83
2019-04-03T07:36:29.979Z,40.80
2019-04-03T07:39:02.151Z,52.97
2019-04-03T07:41:34.144Z,43.87
2019-04-03T07:44:03.802Z,35.97
2019-04-03T07:46:33.950Z,34.40
2019-04-03T07:49:06.813Z,49.80
2019-04-03T07:51:38.956Z,39.80
2019-04-03T07:54:08.589Z,48.03
2019-04-03T07:56:38.286Z,43.20
2019-04-03T07:59:10.115Z,46.83
2019-04-03T08:01:41.947Z,43.13
2019-04-03T08:04:11.957Z,43.23
2019-04-03T08:06:41.486Z,50.07
2019-04-03T08:09:17.571Z,43.30
2019-04-03T08:11:47.047Z,37.80
2019-04-03T08:14:19.410Z,32.47
2019-04-03T08:16:49.702Z,46.00
2019-04-03T08:19:22.972Z,30.87
2019-04-03T08:21:53.332Z,29.80
2019-04-03T08:24:26.090Z,37.90
2019-04-03T08:26:57.226Z,29.77
2019-04-03T08:29:26.973Z,55.27
2019-04-03T08:31:56.914Z,47.07
2019-04-03T08:34:26.472Z,86.90
2019-04-03T08:36:56.189Z,64.13
2019-04-03T08:39:26.520Z,33.40
2019-04-03T08:41:57.108Z,46.27
2019-04-03T08:44:27.031Z,32.70
2019-04-03T08:46:56.679Z,56.67
2019-04-03T08:49:26.696Z,87.43
2019-04-03T08:52:00.076Z,65.70
2019-04-03T08:54:29.702Z,67.43
2019-04-03T08:57:00.468Z,45.57
2019-04-03T08:59:30.567Z,66.83
2019-04-03T09:02:00.474Z,30.20
2019-04-03T09:04:35.301Z,61.17
2019-04-03T09:07:05.013Z,25.87
2019-04-03T09:09:35.628Z,37.63
2019-04-03T09:12:09.269Z,27.93
2019-04-03T09:14:41.331Z,31.93
2019-04-03T09:17:11.070Z,25.80
2019-04-03T09:19:43.354Z,25.63
2019-04-03T09:22:12.927Z,20.03
2019-04-03T09:24:43.087Z,32.00
2019-04-03T09:27:15.593Z,40.80
2019-04-03T09:29:45.906Z,29.77
2019-04-03T09:32:15.056Z,22.20
2019-04-03T09:34:44.945Z,19.67
2019-04-03T09:37:17.487Z,20.87
2019-04-03T09:39:48.363Z,28.70
2019-04-03T09:42:17.969Z,26.23
2019-04-03T09:44:50.829Z,26.03
2019-04-03T09:47:20.853Z,22.57
2019-04-03T09:49:50.786Z,21.17
2019-04-03T09:52:21.176Z,20.57
2019-04-03T09:54:51.784Z,21.30
2019-04-03T09:57:21.561Z,19.20
2019-04-03T09:59:56.355Z,19.03
2019-04-03T10:02:29.129Z,21.40
2019-04-03T10:05:00.109Z,25.67
2019-04-03T10:07:35.428Z,27.57
2019-04-03T10:10:06.174Z,20.90
2019-04-03T10:12:35.771Z,26.23
2019-04-03T10:15:08.814Z,18.73
2019-04-03T10:17:39.321Z,25.87
2019-04-03T10:20:11.118Z,22.33
2019-04-03T10:22:42.002Z,23.10
2019-04-03T10:25:12.578Z,26.97
2019-04-03T10:27:43.533Z,21.97
2019-04-03T10:30:13.832Z,23.80
2019-04-03T10:32:43.536Z,34.37
2019-04-03T10:35:14.264Z,24.27
2019-04-03T10:37:48.793Z,29.07
2019-04-03T10:40:18.204Z,38.70
2019-04-03T10:42:47.773Z,24.40
2019-04-03T10:45:18.004Z,23.47
2019-04-03T10:47:49.326Z,28.17
2019-04-03T10:50:19.444Z,24.90
2019-04-03T10:52:49.365Z,19.70
2019-04-03T10:55:19.457Z,29.07
2019-04-03T10:57:51.851Z,30.87
2019-04-03T11:00:24.978Z,27.93
2019-04-03T11:02:54.054Z,26.63
2019-04-03T11:05:26.575Z,22.30
2019-04-03T11:07:56.076Z,24.47
2019-04-03T11:10:25.684Z,24.87
2019-04-03T11:12:55.699Z,22.60
2019-04-03T11:15:25.911Z,22.83
2019-04-03T11:18:02.880Z,27.90
2019-04-03T11:20:29.457Z,30.77
2019-04-03T11:23:06.787Z,22.33
2019-04-03T11:25:35.476Z,23.07
2019-04-03T11:28:06.912Z,24.63
2019-04-03T11:30:36.094Z,23.83
2019-04-03T11:33:06.922Z,27.33
2019-04-03T11:35:37.201Z,24.43
2019-04-03T11:38:12.667Z,22.13
2019-04-03T11:40:38.133Z,23.33
2019-04-03T11:43:09.941Z,25.67
2019-04-03T11:45:39.799Z,25.40
2019-04-03T11:48:09.123Z,24.30
2019-04-03T11:50:42.656Z,21.63
2019-04-03T11:53:13.793Z,22.53
2019-04-03T11:55:43.367Z,23.43
2019-04-03T11:58:14.082Z,27.47
2019-04-03T12:00:48.194Z,21.50
2019-04-03T12:03:22.189Z,21.33
2019-04-03T12:05:51.789Z,23.03
2019-04-03T12:08:27.547Z,27.03
2019-04-03T12:10:59.973Z,22.50
2019-04-03T12:13:32.058Z,25.50
2019-04-03T12:16:01.926Z,26.67
2019-04-03T12:18:35.106Z,23.07
2019-04-03T12:21:06.212Z,22.13
2019-04-03T12:23:38.735Z,24.43
2019-04-03T12:26:07.220Z,23.33
2019-04-03T12:28:39.534Z,22.13
2019-04-03T12:31:09.488Z,27.37
2019-04-03T12:33:51.663Z,23.53
2019-04-03T12:36:11.085Z,20.20
2019-04-03T12:38:42.555Z,29.30
2019-04-03T12:41:12.654Z,22.50
2019-04-03T12:43:42.367Z,21.57
2019-04-03T12:46:11.928Z,26.00
2019-04-03T12:48:42.830Z,22.53
2019-04-03T12:51:12.400Z,24.60
2019-04-03T12:53:41.803Z,21.87
2019-04-03T12:56:11.840Z,25.37
2019-04-03T12:58:46.743Z,21.73
2019-04-03T13:01:18.004Z,25.30
2019-04-03T13:03:47.636Z,22.47
2019-04-03T13:06:17.034Z,28.13
2019-04-03T13:08:46.419Z,31.10
2019-04-03T13:11:18.680Z,27.67
2019-04-03T13:13:47.509Z,22.50
2019-04-03T13:16:21.226Z,23.37
2019-04-03T13:18:50.970Z,25.13
2019-04-03T13:21:20.744Z,24.27
2019-04-03T13:23:50.791Z,22.77
2019-04-03T13:26:24.047Z,25.67
2019-04-03T13:28:51.705Z,22.50
2019-04-03T13:31:28.170Z,23.90
2019-04-03T13:33:57.868Z,21.10
2019-04-03T13:36:27.700Z,18.00
2019-04-03T13:39:00.300Z,23.67
2019-04-03T13:41:30.130Z,24.57
2019-04-03T13:44:02.467Z,22.93
2019-04-03T13:46:32.547Z,22.77
2019-04-03T13:49:02.683Z,18.67
2019-04-03T13:51:32.424Z,15.90
2019-04-03T13:54:07.219Z,17.80
2019-04-03T13:56:37.387Z,22.77
2019-04-03T13:59:07.279Z,19.27
2019-04-03T14:01:37.880Z,23.00
2019-04-03T14:04:08.174Z,21.13
2019-04-03T14:06:37.844Z,19.90
2019-04-03T14:09:10.010Z,18.37
2019-04-03T14:11:41.196Z,23.27
2019-04-03T14:14:13.391Z,23.97
2019-04-03T14:16:42.206Z,24.63
2019-04-03T14:19:13.174Z,17.73
2019-04-03T14:21:42.912Z,16.63
2019-04-03T14:24:12.664Z,18.37
2019-04-03T14:26:44.413Z,18.57
2019-04-03T14:29:13.608Z,21.50
2019-04-03T14:31:43.381Z,13.70
2019-04-03T14:34:13.030Z,18.67
2019-04-03T14:36:44.004Z,16.80
2019-04-03T14:39:14.707Z,18.83
2019-04-03T14:41:44.264Z,16.73
2019-04-03T14:44:13.740Z,13.40
2019-04-03T14:46:50.025Z,16.23
2019-04-03T14:49:17.878Z,17.83
2019-04-03T14:51:47.578Z,18.17
2019-04-03T14:54:17.291Z,20.03
2019-04-03T14:56:48.607Z,15.27
2019-04-03T14:59:18.123Z,13.43
2019-04-03T15:01:52.300Z,16.87
2019-04-03T15:04:22.089Z,19.13
2019-04-03T15:07:02.059Z,18.13
2019-04-03T15:09:27.046Z,22.60
2019-04-03T15:12:05.845Z,18.17
2019-04-03T15:14:35.257Z,17.33
2019-04-03T15:17:05.493Z,18.67
2019-04-03T15:19:35.666Z,18.47
2019-04-03T15:22:09.905Z,17.93
2019-04-03T15:24:42.646Z,16.73
2019-04-03T15:27:11.021Z,19.23
2019-04-03T15:29:47.852Z,16.80
2019-04-03T15:32:18.685Z,16.97
2019-04-03T15:34:50.632Z,16.77
2019-04-03T15:37:19.778Z,17.57
2019-04-03T15:39:57.396Z,14.93
2019-04-03T15:42:23.546Z,14.60
2019-04-03T15:44:53.289Z,13.53
2019-04-03T15:47:34.294Z,14.67
2019-04-03T15:49:58.840Z,15.27
2019-04-03T15:52:28.193Z,15.43
2019-04-03T15:54:58.453Z,17.73
2019-04-03T15:57:28.148Z,16.73
2019-04-03T15:59:58.098Z,15.20
2019-04-03T16:02:28.617Z,17.47
2019-04-03T16:04:59.928Z,19.73
2019-04-03T16:07:32.558Z,18.50
2019-04-03T16:10:00.607Z,19.60
2019-04-03T16:12:35.549Z,12.80
2019-04-03T16:15:09.220Z,16.33
2019-04-03T16:17:40.011Z,16.53
2019-04-03T16:20:10.314Z,15.80
2019-04-03T16:22:40.269Z,15.13
2019-04-03T16:25:10.326Z,14.23
2019-04-03T16:27:43.084Z,15.57
2019-04-03T16:30:16.170Z,13.20
2019-04-03T16:32:49.650Z,17.13
2019-04-03T16:35:19.054Z,18.83
2019-04-03T16:37:50.536Z,21.50
2019-04-03T16:40:20.310Z,15.50
2019-04-03T16:42:52.955Z,24.73
2019-04-03T16:45:20.911Z,22.07
2019-04-03T16:47:49.934Z,31.97
2019-04-03T16:50:19.977Z,38.77
2019-04-03T16:52:49.868Z,42.47
2019-04-03T16:55:19.280Z,43.40
2019-04-03T16:57:49.321Z,36.73
2019-04-03T17:00:20.643Z,31.50
2019-04-03T17:02:50.332Z,36.77
2019-04-03T17:05:20.248Z,38.53
2019-04-03T17:07:53.221Z,55.53
2019-04-03T17:10:21.324Z,48.73
2019-04-03T17:12:51.016Z,20.67
2019-04-03T17:15:22.365Z,26.53
2019-04-03T17:17:51.731Z,27.63
2019-04-03T17:20:22.560Z,24.17
2019-04-03T17:22:52.526Z,84.80
2019-04-03T17:25:22.453Z,74.73
2019-04-03T17:27:57.370Z,43.73
2019-04-03T17:30:23.884Z,47.50
2019-04-03T17:32:52.939Z,35.33
2019-04-03T17:35:21.971Z,23.07
2019-04-03T17:37:51.199Z,18.33
2019-04-03T17:40:20.713Z,98.60
2019-04-03T17:42:50.267Z,176.43
2019-04-03T17:45:22.626Z,47.07
2019-04-03T17:47:53.847Z,20.97
2019-04-03T17:50:23.096Z,29.90
2019-04-03T17:52:54.867Z,36.43
2019-04-03T17:55:24.713Z,33.67
2019-04-03T17:57:54.425Z,43.23
2019-04-03T18:00:24.954Z,38.90
2019-04-03T18:02:55.686Z,50.30
2019-04-03T18:05:26.633Z,51.20
2019-04-03T18:07:58.517Z,51.80
2019-04-03T18:10:27.251Z,107.83
2019-04-03T18:12:56.826Z,134.23
2019-04-03T18:15:27.520Z,168.07
2019-04-03T18:17:58.022Z,155.80
2019-04-03T18:20:27.563Z,68.10
2019-04-03T18:22:57.041Z,56.53
2019-04-03T18:25:28.803Z,41.73
2019-04-03T18:27:58.355Z,47.53
2019-04-03T18:30:28.452Z,59.67
2019-04-03T18:32:59.349Z,149.57
2019-04-03T18:35:33.770Z,67.83
2019-04-03T18:38:07.576Z,59.93
2019-04-03T18:40:37.311Z,84.17
2019-04-03T18:43:07.847Z,43.20
2019-04-03T18:45:39.739Z,38.83
2019-04-03T18:48:09.517Z,38.63
2019-04-03T18:50:39.202Z,39.30
2019-04-03T18:53:09.761Z,39.47
2019-04-03T18:55:45.311Z,51.23
2019-04-03T18:58:18.054Z,48.53
2019-04-03T19:00:47.998Z,55.00
2019-04-03T19:03:18.842Z,41.33
2019-04-03T19:05:48.161Z,43.97
2019-04-03T19:08:20.565Z,38.13
2019-04-03T19:11:01.569Z,36.73
2019-04-03T19:13:21.814Z,42.30
2019-04-03T19:15:51.675Z,47.27
2019-04-03T19:18:21.628Z,33.37
2019-04-03T19:20:52.154Z,36.63
2019-04-03T19:23:21.848Z,34.67
2019-04-03T19:25:58.086Z,31.70
2019-04-03T19:28:34.303Z,37.47
2019-04-03T19:31:03.875Z,40.77
2019-04-03T19:33:36.760Z,39.33
2019-04-03T19:36:07.005Z,33.03
2019-04-03T19:38:39.604Z,36.57
2019-04-03T19:41:09.929Z,37.83
2019-04-03T19:43:40.618Z,29.43
2019-04-03T19:46:10.337Z,43.27
2019-04-03T19:48:39.920Z,39.57
2019-04-03T19:51:15.463Z,47.47
2019-04-03T19:53:44.601Z,43.17
2019-04-03T19:56:14.936Z,30.30
2019-04-03T19:58:45.902Z,33.43
2019-04-03T20:01:15.343Z,37.67
2019-04-03T20:03:45.949Z,35.53
2019-04-03T20:06:22.556Z,30.27
2019-04-03T20:08:50.832Z,34.93
2019-04-03T20:11:20.520Z,39.33
2019-04-03T20:13:49.743Z,43.53
2019-04-03T20:16:20.965Z,43.07
2019-04-03T20:18:50.497Z,30.30
2019-04-03T20:21:20.184Z,28.73
2019-04-03T20:23:49.923Z,57.03
2019-04-03T20:26:19.436Z,150.07
2019-04-03T20:28:48.946Z,66.60
2019-04-03T20:31:20.872Z,31.47
2019-04-03T20:33:50.671Z,32.97
2019-04-03T20:36:20.855Z,27.87
2019-04-03T20:38:50.619Z,30.60
2019-04-03T20:41:20.731Z,30.77
2019-04-03T20:43:54.927Z,27.50
2019-04-03T20:46:24.529Z,31.73
2019-04-03T20:48:54.156Z,36.13
2019-04-03T20:51:26.536Z,31.37
2019-04-03T20:53:56.250Z,35.83
2019-04-03T20:56:27.119Z,47.53
2019-04-03T20:59:00.106Z,67.30
2019-04-03T21:01:29.686Z,43.07
2019-04-03T21:03:59.447Z,28.33
2019-04-03T21:06:29.092Z,33.70
2019-04-03T21:08:59.484Z,33.83
2019-04-03T21:11:29.577Z,34.90
2019-04-03T21:13:59.263Z,32.73
2019-04-03T21:16:33.364Z,39.87
2019-04-03T21:19:03.174Z,42.43
2019-04-03T21:21:32.917Z,49.60
2019-04-03T21:24:03.944Z,66.20
2019-04-03T21:26:37.646Z,112.53
2019-04-03T21:29:06.941Z,46.50
2019-04-03T21:31:37.341Z,41.80
2019-04-03T21:34:06.771Z,29.90
2019-04-03T21:36:39.256Z,31.97
2019-04-03T21:39:10.981Z,40.97
2019-04-03T21:41:41.681Z,40.07
2019-04-03T21:44:11.142Z,33.43
2019-04-03T21:46:40.691Z,49.27
2019-04-03T21:49:10.588Z,50.17
2019-04-03T21:51:40.502Z,37.23
2019-04-03T21:54:09.996Z,46.43
2019-04-03T21:56:39.824Z,45.03
2019-04-03T21:59:10.936Z,35.50
2019-04-03T22:01:40.757Z,35.23
2019-04-03T22:04:10.509Z,31.57
2019-04-03T22:06:40.181Z,34.47
2019-04-03T22:09:12.549Z,34.37
2019-04-03T22:11:43.394Z,39.90
2019-04-03T22:14:15.301Z,34.23
2019-04-03T22:16:45.191Z,31.03
2019-04-03T22:19:15.102Z,40.07
2019-04-03T22:21:44.594Z,34.43
2019-04-03T22:24:14.123Z,31.00
2019-04-03T22:26:43.639Z,67.37
2019-04-03T22:29:13.529Z,94.97
2019-04-03T22:31:45.921Z,78.53
2019-04-03T22:34:19.544Z,42.40
2019-04-03T22:36:50.619Z,31.97
2019-04-03T22:39:20.235Z,36.10
2019-04-03T22:41:50.069Z,32.67
2019-04-03T22:44:19.545Z,34.33
2019-04-03T22:46:49.277Z,31.93
2019-04-03T22:49:19.185Z,37.07
2019-04-03T22:51:48.909Z,32.60
2019-04-03T22:54:18.600Z,31.57
2019-04-03T22:56:48.342Z,30.17
2019-04-03T22:59:18.007Z,31.77
2019-04-03T23:01:47.721Z,32.93
2019-04-03T23:04:17.438Z,35.07
2019-04-03T23:06:49.407Z,34.87
2019-04-03T23:09:18.500Z,31.33
2019-04-03T23:11:48.057Z,38.43
2019-04-03T23:14:17.938Z,34.87
2019-04-03T23:16:47.413Z,39.30
2019-04-03T23:19:17.906Z,36.50
2019-04-03T23:21:48.300Z,37.17
2019-04-03T23:24:17.834Z,39.93
2019-04-03T23:26:47.487Z,42.03
2019-04-03T23:29:17.232Z,40.77
2019-04-03T23:31:49.391Z,40.40
2019-04-03T23:34:21.018Z,37.20
2019-04-03T23:36:50.667Z,39.07
2019-04-03T23:39:20.338Z,36.23
2019-04-03T23:41:54.422Z,35.70
2019-04-03T23:44:25.455Z,37.00
2019-04-03T23:46:55.007Z,34.03
2019-04-03T23:49:24.559Z,36.03
2019-04-03T23:51:54.026Z,34.77
2019-04-03T23:54:25.579Z,35.00
2019-04-03T23:56:56.722Z,34.53
2019-04-03T23:59:26.245Z,34.23
